sensor_id;sensor_type;location;lat;lon;timestamp;P1;durP1;ratioP1;P2;durP2;ratioP2
5245;SDS011;54412;51.206;6.888;2023-04-03T00:01:37;7.33;;;5.20;;
5245;SDS011;54412;51.206;6.888;2023-04-03T00:04:04;5.00;;;4.27;;
5245;SDS011;54412;51.206;6.888;2023-04-03T00:06:30;7.63;;;4.90;;
5245;SDS011;54412;51.206;6.888;2023-04-03T00:08:57;6.57;;;5.20;;
5245;SDS011;54412;51.206;6.888;2023-04-03T00:11:22;6.53;;;4.50;;
5245;SDS011;54412;51.206;6.888;2023-04-03T00:13:48;8.93;;;5.03;;
5245;SDS011;54412;51.206;6.888;2023-04-03T00:16:14;5.40;;;4.63;;
5245;SDS011;54412;51.206;6.888;2023-04-03T00:18:40;5.43;;;4.80;;
5245;SDS011;54412;51.206;6.888;2023-04-03T00:21:06;7.47;;;5.47;;
5245;SDS011;54412;51.206;6.888;2023-04-03T00:23:34;6.13;;;5.07;;
5245;SDS011;54412;51.206;6.888;2023-04-03T00:26:00;4.93;;;4.10;;
5245;SDS011;54412;51.206;6.888;2023-04-03T00:28:26;16.03;;;5.30;;
5245;SDS011;54412;51.206;6.888;2023-04-03T00:30:51;8.33;;;4.30;;
5245;SDS011;54412;51.206;6.888;2023-04-03T00:33:17;11.47;;;3.80;;
5245;SDS011;54412;51.206;6.888;2023-04-03T00:35:46;6.00;;;5.00;;
5245;SDS011;54412;51.206;6.888;2023-04-03T00:38:13;4.73;;;4.03;;
5245;SDS011;54412;51.206;6.888;2023-04-03T00:40:42;6.37;;;5.10;;
5245;SDS011;54412;51.206;6.888;2023-04-03T00:43:15;7.70;;;5.10;;
5245;SDS011;54412;51.206;6.888;2023-04-03T00:45:50;5.80;;;4.33;;
5245;SDS011;54412;51.206;6.888;2023-04-03T00:48:20;4.73;;;4.10;;
5245;SDS011;54412;51.206;6.888;2023-04-03T00:50:54;6.10;;;4.77;;
5245;SDS011;54412;51.206;6.888;2023-04-03T00:53:23;5.50;;;5.00;;
5245;SDS011;54412;51.206;6.888;2023-04-03T00:55:58;7.67;;;4.37;;
5245;SDS011;54412;51.206;6.888;2023-04-03T00:58:28;4.63;;;4.20;;
5245;SDS011;54412;51.206;6.888;2023-04-03T01:01:03;5.27;;;4.80;;
5245;SDS011;54412;51.206;6.888;2023-04-03T01:03:35;5.80;;;4.50;;
5245;SDS011;54412;51.206;6.888;2023-04-03T01:06:01;9.90;;;4.73;;
5245;SDS011;54412;51.206;6.888;2023-04-03T01:08:28;5.30;;;4.63;;
5245;SDS011;54412;51.206;6.888;2023-04-03T01:10:54;5.73;;;4.67;;
5245;SDS011;54412;51.206;6.888;2023-04-03T01:13:22;15.13;;;5.20;;
5245;SDS011;54412;51.206;6.888;2023-04-03T01:15:50;8.20;;;5.00;;
5245;SDS011;54412;51.206;6.888;2023-04-03T01:18:16;8.20;;;5.33;;
5245;SDS011;54412;51.206;6.888;2023-04-03T01:20:50;4.67;;;4.20;;
5245;SDS011;54412;51.206;6.888;2023-04-03T01:23:55;5.07;;;4.60;;
5245;SDS011;54412;51.206;6.888;2023-04-03T01:26:46;9.83;;;5.43;;
5245;SDS011;54412;51.206;6.888;2023-04-03T01:29:13;8.33;;;5.37;;
5245;SDS011;54412;51.206;6.888;2023-04-03T01:34:22;5.23;;;4.73;;
5245;SDS011;54412;51.206;6.888;2023-04-03T01:36:49;6.97;;;6.27;;
5245;SDS011;54412;51.206;6.888;2023-04-03T01:39:15;7.40;;;4.73;;
5245;SDS011;54412;51.206;6.888;2023-04-03T01:41:41;7.37;;;5.00;;
5245;SDS011;54412;51.206;6.888;2023-04-03T01:44:08;5.77;;;5.17;;
5245;SDS011;54412;51.206;6.888;2023-04-03T01:46:34;5.73;;;5.00;;
5245;SDS011;54412;51.206;6.888;2023-04-03T01:48:59;5.23;;;4.73;;
5245;SDS011;54412;51.206;6.888;2023-04-03T01:51:25;4.50;;;4.10;;
5245;SDS011;54412;51.206;6.888;2023-04-03T01:53:51;6.17;;;5.27;;
5245;SDS011;54412;51.206;6.888;2023-04-03T01:56:17;5.73;;;5.03;;
5245;SDS011;54412;51.206;6.888;2023-04-03T01:58:42;7.60;;;4.60;;
5245;SDS011;54412;51.206;6.888;2023-04-03T02:01:08;8.60;;;5.00;;
5245;SDS011;54412;51.206;6.888;2023-04-03T02:03:34;5.17;;;4.67;;
5245;SDS011;54412;51.206;6.888;2023-04-03T02:05:59;6.30;;;4.53;;
5245;SDS011;54412;51.206;6.888;2023-04-03T02:08:25;4.10;;;3.80;;
5245;SDS011;54412;51.206;6.888;2023-04-03T02:10:51;5.47;;;4.70;;
5245;SDS011;54412;51.206;6.888;2023-04-03T02:13:17;6.70;;;4.07;;
5245;SDS011;54412;51.206;6.888;2023-04-03T02:15:43;5.10;;;3.93;;
5245;SDS011;54412;51.206;6.888;2023-04-03T02:18:08;4.37;;;4.07;;
5245;SDS011;54412;51.206;6.888;2023-04-03T02:20:34;3.80;;;3.50;;
5245;SDS011;54412;51.206;6.888;2023-04-03T02:23:00;4.03;;;3.73;;
5245;SDS011;54412;51.206;6.888;2023-04-03T02:25:26;7.90;;;4.20;;
5245;SDS011;54412;51.206;6.888;2023-04-03T02:27:52;8.33;;;4.20;;
5245;SDS011;54412;51.206;6.888;2023-04-03T02:30:18;5.00;;;4.00;;
5245;SDS011;54412;51.206;6.888;2023-04-03T02:32:43;6.63;;;4.30;;
5245;SDS011;54412;51.206;6.888;2023-04-03T02:35:10;4.10;;;3.77;;
5245;SDS011;54412;51.206;6.888;2023-04-03T02:37:36;7.97;;;4.73;;
5245;SDS011;54412;51.206;6.888;2023-04-03T02:40:03;4.40;;;3.97;;
5245;SDS011;54412;51.206;6.888;2023-04-03T02:42:30;5.83;;;3.50;;
5245;SDS011;54412;51.206;6.888;2023-04-03T02:44:57;8.13;;;4.47;;
5245;SDS011;54412;51.206;6.888;2023-04-03T02:47:22;6.70;;;4.10;;
5245;SDS011;54412;51.206;6.888;2023-04-03T02:49:48;5.83;;;4.30;;
5245;SDS011;54412;51.206;6.888;2023-04-03T02:52:14;4.63;;;4.00;;
5245;SDS011;54412;51.206;6.888;2023-04-03T02:54:40;4.17;;;3.33;;
5245;SDS011;54412;51.206;6.888;2023-04-03T02:57:06;3.53;;;3.23;;
5245;SDS011;54412;51.206;6.888;2023-04-03T02:59:34;5.33;;;3.77;;
5245;SDS011;54412;51.206;6.888;2023-04-03T03:02:06;6.07;;;3.90;;
5245;SDS011;54412;51.206;6.888;2023-04-03T03:04:33;6.13;;;4.00;;
5245;SDS011;54412;51.206;6.888;2023-04-03T03:07:00;4.10;;;3.80;;
5245;SDS011;54412;51.206;6.888;2023-04-03T03:09:26;4.03;;;3.50;;
5245;SDS011;54412;51.206;6.888;2023-04-03T03:11:52;7.43;;;3.87;;
5245;SDS011;54412;51.206;6.888;2023-04-03T03:14:18;6.17;;;4.57;;
5245;SDS011;54412;51.206;6.888;2023-04-03T03:16:43;5.33;;;4.30;;
5245;SDS011;54412;51.206;6.888;2023-04-03T03:19:09;6.17;;;4.60;;
5245;SDS011;54412;51.206;6.888;2023-04-03T03:21:35;5.33;;;3.70;;
5245;SDS011;54412;51.206;6.888;2023-04-03T03:24:01;4.10;;;3.77;;
5245;SDS011;54412;51.206;6.888;2023-04-03T03:26:27;6.53;;;3.57;;
5245;SDS011;54412;51.206;6.888;2023-04-03T03:28:53;8.07;;;3.67;;
5245;SDS011;54412;51.206;6.888;2023-04-03T03:31:19;6.73;;;3.73;;
5245;SDS011;54412;51.206;6.888;2023-04-03T03:33:45;4.53;;;3.33;;
5245;SDS011;54412;51.206;6.888;2023-04-03T03:36:11;6.57;;;4.37;;
5245;SDS011;54412;51.206;6.888;2023-04-03T03:38:36;4.40;;;3.33;;
5245;SDS011;54412;51.206;6.888;2023-04-03T03:41:02;6.77;;;4.80;;
5245;SDS011;54412;51.206;6.888;2023-04-03T03:43:28;7.00;;;4.60;;
5245;SDS011;54412;51.206;6.888;2023-04-03T03:45:54;6.47;;;4.43;;
5245;SDS011;54412;51.206;6.888;2023-04-03T03:48:20;4.00;;;3.60;;
5245;SDS011;54412;51.206;6.888;2023-04-03T03:50:46;8.33;;;3.90;;
5245;SDS011;54412;51.206;6.888;2023-04-03T03:53:13;6.07;;;3.90;;
5245;SDS011;54412;51.206;6.888;2023-04-03T03:55:39;4.90;;;4.30;;
5245;SDS011;54412;51.206;6.888;2023-04-03T03:58:06;4.83;;;4.03;;
5245;SDS011;54412;51.206;6.888;2023-04-03T04:00:32;6.10;;;3.33;;
5245;SDS011;54412;51.206;6.888;2023-04-03T04:02:57;4.43;;;3.57;;
5245;SDS011;54412;51.206;6.888;2023-04-03T04:05:23;4.17;;;3.20;;
5245;SDS011;54412;51.206;6.888;2023-04-03T04:07:49;9.63;;;3.47;;
5245;SDS011;54412;51.206;6.888;2023-04-03T04:10:15;5.27;;;3.40;;
5245;SDS011;54412;51.206;6.888;2023-04-03T04:12:41;5.90;;;3.00;;
5245;SDS011;54412;51.206;6.888;2023-04-03T04:15:07;5.03;;;3.03;;
5245;SDS011;54412;51.206;6.888;2023-04-03T04:17:34;3.60;;;3.10;;
5245;SDS011;54412;51.206;6.888;2023-04-03T04:20:00;6.10;;;3.43;;
5245;SDS011;54412;51.206;6.888;2023-04-03T04:22:27;5.47;;;3.00;;
5245;SDS011;54412;51.206;6.888;2023-04-03T04:24:53;4.73;;;2.83;;
5245;SDS011;54412;51.206;6.888;2023-04-03T04:27:19;5.10;;;3.00;;
5245;SDS011;54412;51.206;6.888;2023-04-03T04:29:44;8.27;;;3.43;;
5245;SDS011;54412;51.206;6.888;2023-04-03T04:32:10;3.43;;;3.20;;
5245;SDS011;54412;51.206;6.888;2023-04-03T04:34:36;3.13;;;2.70;;
5245;SDS011;54412;51.206;6.888;2023-04-03T04:37:02;4.90;;;3.57;;
5245;SDS011;54412;51.206;6.888;2023-04-03T04:39:27;3.63;;;3.33;;
5245;SDS011;54412;51.206;6.888;2023-04-03T04:41:53;3.43;;;2.73;;
5245;SDS011;54412;51.206;6.888;2023-04-03T04:44:19;6.30;;;3.63;;
5245;SDS011;54412;51.206;6.888;2023-04-03T04:46:45;6.30;;;3.63;;
5245;SDS011;54412;51.206;6.888;2023-04-03T04:49:11;3.33;;;2.80;;
5245;SDS011;54412;51.206;6.888;2023-04-03T04:51:36;5.30;;;3.17;;
5245;SDS011;54412;51.206;6.888;2023-04-03T04:54:02;7.67;;;3.20;;
5245;SDS011;54412;51.206;6.888;2023-04-03T04:56:28;7.97;;;3.73;;
5245;SDS011;54412;51.206;6.888;2023-04-03T04:58:53;8.57;;;4.47;;
5245;SDS011;54412;51.206;6.888;2023-04-03T05:01:19;9.27;;;3.77;;
5245;SDS011;54412;51.206;6.888;2023-04-03T05:03:45;5.20;;;3.90;;
5245;SDS011;54412;51.206;6.888;2023-04-03T05:06:11;4.53;;;3.33;;
5245;SDS011;54412;51.206;6.888;2023-04-03T05:08:36;9.70;;;4.10;;
5245;SDS011;54412;51.206;6.888;2023-04-03T05:11:02;7.33;;;3.30;;
5245;SDS011;54412;51.206;6.888;2023-04-03T05:13:28;5.53;;;3.00;;
5245;SDS011;54412;51.206;6.888;2023-04-03T05:15:53;3.23;;;2.63;;
5245;SDS011;54412;51.206;6.888;2023-04-03T05:18:19;9.07;;;3.23;;
5245;SDS011;54412;51.206;6.888;2023-04-03T05:20:45;6.33;;;3.17;;
5245;SDS011;54412;51.206;6.888;2023-04-03T05:23:13;4.50;;;2.87;;
5245;SDS011;54412;51.206;6.888;2023-04-03T05:25:39;5.57;;;3.07;;
5245;SDS011;54412;51.206;6.888;2023-04-03T05:28:05;6.43;;;3.03;;
5245;SDS011;54412;51.206;6.888;2023-04-03T05:30:31;5.13;;;3.00;;
5245;SDS011;54412;51.206;6.888;2023-04-03T05:32:58;3.60;;;2.40;;
5245;SDS011;54412;51.206;6.888;2023-04-03T05:35:24;5.30;;;3.77;;
5245;SDS011;54412;51.206;6.888;2023-04-03T05:37:50;5.50;;;3.00;;
5245;SDS011;54412;51.206;6.888;2023-04-03T05:40:16;4.30;;;3.30;;
5245;SDS011;54412;51.206;6.888;2023-04-03T05:42:43;8.27;;;3.10;;
5245;SDS011;54412;51.206;6.888;2023-04-03T05:45:09;10.40;;;3.70;;
5245;SDS011;54412;51.206;6.888;2023-04-03T05:47:35;5.50;;;3.50;;
5245;SDS011;54412;51.206;6.888;2023-04-03T05:50:01;7.43;;;2.60;;
5245;SDS011;54412;51.206;6.888;2023-04-03T05:52:27;7.03;;;3.50;;
5245;SDS011;54412;51.206;6.888;2023-04-03T05:54:57;4.43;;;3.17;;
5245;SDS011;54412;51.206;6.888;2023-04-03T05:57:23;8.07;;;3.23;;
5245;SDS011;54412;51.206;6.888;2023-04-03T05:59:49;7.57;;;3.30;;
5245;SDS011;54412;51.206;6.888;2023-04-03T06:02:15;6.67;;;3.43;;
5245;SDS011;54412;51.206;6.888;2023-04-03T06:04:45;6.03;;;2.87;;
5245;SDS011;54412;51.206;6.888;2023-04-03T06:07:13;18.03;;;3.20;;
5245;SDS011;54412;51.206;6.888;2023-04-03T06:09:44;4.20;;;3.00;;
5245;SDS011;54412;51.206;6.888;2023-04-03T06:12:10;7.80;;;3.20;;
5245;SDS011;54412;51.206;6.888;2023-04-03T06:14:36;5.60;;;3.13;;
5245;SDS011;54412;51.206;6.888;2023-04-03T06:17:02;4.00;;;3.30;;
5245;SDS011;54412;51.206;6.888;2023-04-03T06:19:29;6.50;;;3.50;;
5245;SDS011;54412;51.206;6.888;2023-04-03T06:21:55;6.10;;;3.27;;
5245;SDS011;54412;51.206;6.888;2023-04-03T06:24:21;6.73;;;3.27;;
5245;SDS011;54412;51.206;6.888;2023-04-03T06:26:49;7.50;;;3.10;;
5245;SDS011;54412;51.206;6.888;2023-04-03T06:29:16;13.67;;;3.20;;
5245;SDS011;54412;51.206;6.888;2023-04-03T06:31:43;7.43;;;3.33;;
5245;SDS011;54412;51.206;6.888;2023-04-03T06:34:10;6.27;;;2.97;;
5245;SDS011;54412;51.206;6.888;2023-04-03T06:36:36;4.20;;;2.63;;
5245;SDS011;54412;51.206;6.888;2023-04-03T06:39:04;8.67;;;4.00;;
5245;SDS011;54412;51.206;6.888;2023-04-03T06:41:32;5.30;;;3.13;;
5245;SDS011;54412;51.206;6.888;2023-04-03T06:43:58;8.33;;;3.40;;
5245;SDS011;54412;51.206;6.888;2023-04-03T06:46:25;10.13;;;3.70;;
5245;SDS011;54412;51.206;6.888;2023-04-03T06:48:51;5.63;;;2.70;;
5245;SDS011;54412;51.206;6.888;2023-04-03T06:51:21;5.50;;;3.13;;
5245;SDS011;54412;51.206;6.888;2023-04-03T06:53:52;5.57;;;2.83;;
5245;SDS011;54412;51.206;6.888;2023-04-03T06:56:20;6.80;;;3.20;;
5245;SDS011;54412;51.206;6.888;2023-04-03T06:58:46;3.93;;;2.47;;
5245;SDS011;54412;51.206;6.888;2023-04-03T07:01:13;8.70;;;2.90;;
5245;SDS011;54412;51.206;6.888;2023-04-03T07:03:41;13.50;;;3.33;;
5245;SDS011;54412;51.206;6.888;2023-04-03T07:06:07;6.07;;;3.17;;
5245;SDS011;54412;51.206;6.888;2023-04-03T07:08:37;6.73;;;3.30;;
5245;SDS011;54412;51.206;6.888;2023-04-03T07:11:04;2.67;;;2.23;;
5245;SDS011;54412;51.206;6.888;2023-04-03T07:13:31;13.17;;;4.07;;
5245;SDS011;54412;51.206;6.888;2023-04-03T07:15:57;8.13;;;2.53;;
5245;SDS011;54412;51.206;6.888;2023-04-03T07:18:23;9.13;;;3.43;;
5245;SDS011;54412;51.206;6.888;2023-04-03T07:20:50;3.40;;;2.73;;
5245;SDS011;54412;51.206;6.888;2023-04-03T07:23:16;7.20;;;2.77;;
5245;SDS011;54412;51.206;6.888;2023-04-03T07:25:43;5.10;;;2.93;;
5245;SDS011;54412;51.206;6.888;2023-04-03T07:28:14;6.80;;;2.70;;
5245;SDS011;54412;51.206;6.888;2023-04-03T07:30:45;5.20;;;2.60;;
5245;SDS011;54412;51.206;6.888;2023-04-03T07:33:26;6.30;;;2.97;;
5245;SDS011;54412;51.206;6.888;2023-04-03T07:35:53;5.07;;;2.63;;
5245;SDS011;54412;51.206;6.888;2023-04-03T07:38:20;6.73;;;2.80;;
5245;SDS011;54412;51.206;6.888;2023-04-03T07:40:49;8.90;;;2.70;;
5245;SDS011;54412;51.206;6.888;2023-04-03T07:43:18;8.07;;;3.03;;
5245;SDS011;54412;51.206;6.888;2023-04-03T07:45:45;6.00;;;2.47;;
5245;SDS011;54412;51.206;6.888;2023-04-03T07:48:14;7.30;;;2.33;;
5245;SDS011;54412;51.206;6.888;2023-04-03T07:50:42;5.17;;;2.80;;
5245;SDS011;54412;51.206;6.888;2023-04-03T07:53:08;5.17;;;2.20;;
5245;SDS011;54412;51.206;6.888;2023-04-03T07:55:35;3.37;;;2.20;;
5245;SDS011;54412;51.206;6.888;2023-04-03T07:58:08;6.80;;;2.87;;
5245;SDS011;54412;51.206;6.888;2023-04-03T08:00:37;3.37;;;2.40;;
5245;SDS011;54412;51.206;6.888;2023-04-03T08:03:04;3.60;;;2.57;;
5245;SDS011;54412;51.206;6.888;2023-04-03T08:05:31;3.87;;;1.83;;
5245;SDS011;54412;51.206;6.888;2023-04-03T08:08:00;4.07;;;1.83;;
5245;SDS011;54412;51.206;6.888;2023-04-03T08:10:26;4.17;;;2.13;;
5245;SDS011;54412;51.206;6.888;2023-04-03T08:12:52;3.37;;;2.40;;
5245;SDS011;54412;51.206;6.888;2023-04-03T08:15:17;4.73;;;2.27;;
5245;SDS011;54412;51.206;6.888;2023-04-03T08:17:43;9.50;;;2.27;;
5245;SDS011;54412;51.206;6.888;2023-04-03T08:20:09;5.53;;;1.90;;
5245;SDS011;54412;51.206;6.888;2023-04-03T08:22:35;4.23;;;1.97;;
5245;SDS011;54412;51.206;6.888;2023-04-03T08:25:01;3.10;;;1.93;;
5245;SDS011;54412;51.206;6.888;2023-04-03T08:27:27;3.57;;;1.70;;
5245;SDS011;54412;51.206;6.888;2023-04-03T08:29:53;1.70;;;1.60;;
5245;SDS011;54412;51.206;6.888;2023-04-03T08:32:22;2.00;;;1.70;;
5245;SDS011;54412;51.206;6.888;2023-04-03T08:34:48;4.97;;;1.87;;
5245;SDS011;54412;51.206;6.888;2023-04-03T08:37:14;5.00;;;2.13;;
5245;SDS011;54412;51.206;6.888;2023-04-03T08:39:43;3.23;;;1.87;;
5245;SDS011;54412;51.206;6.888;2023-04-03T08:42:16;6.30;;;2.77;;
5245;SDS011;54412;51.206;6.888;2023-04-03T08:45:10;2.53;;;1.73;;
5245;SDS011;54412;51.206;6.888;2023-04-03T08:50:26;4.37;;;2.17;;
5245;SDS011;54412;51.206;6.888;2023-04-03T08:52:59;4.00;;;1.60;;
5245;SDS011;54412;51.206;6.888;2023-04-03T08:55:34;5.57;;;2.30;;
5245;SDS011;54412;51.206;6.888;2023-04-03T08:58:12;2.87;;;1.37;;
5245;SDS011;54412;51.206;6.888;2023-04-03T09:00:46;2.90;;;1.60;;
5245;SDS011;54412;51.206;6.888;2023-04-03T09:03:21;2.03;;;1.50;;
5245;SDS011;54412;51.206;6.888;2023-04-03T09:05:49;8.07;;;1.47;;
5245;SDS011;54412;51.206;6.888;2023-04-03T09:08:31;4.20;;;1.80;;
5245;SDS011;54412;51.206;6.888;2023-04-03T09:13:49;1.97;;;1.70;;
5245;SDS011;54412;51.206;6.888;2023-04-03T09:19:30;2.00;;;1.60;;
5245;SDS011;54412;51.206;6.888;2023-04-03T09:22:13;2.60;;;1.20;;
5245;SDS011;54412;51.206;6.888;2023-04-03T09:24:45;4.53;;;1.70;;
5245;SDS011;54412;51.206;6.888;2023-04-03T09:27:21;4.53;;;1.70;;
5245;SDS011;54412;51.206;6.888;2023-04-03T09:29:46;4.60;;;1.80;;
5245;SDS011;54412;51.206;6.888;2023-04-03T09:35:01;2.53;;;1.90;;
5245;SDS011;54412;51.206;6.888;2023-04-03T09:37:42;1.93;;;1.70;;
5245;SDS011;54412;51.206;6.888;2023-04-03T09:42:56;2.20;;;1.40;;
5245;SDS011;54412;51.206;6.888;2023-04-03T09:45:33;1.60;;;1.50;;
5245;SDS011;54412;51.206;6.888;2023-04-03T09:48:16;1.70;;;1.60;;
5245;SDS011;54412;51.206;6.888;2023-04-03T09:53:28;9.87;;;1.17;;
5245;SDS011;54412;51.206;6.888;2023-04-03T09:58:40;5.40;;;1.83;;
5245;SDS011;54412;51.206;6.888;2023-04-03T10:01:21;2.10;;;1.40;;
5245;SDS011;54412;51.206;6.888;2023-04-03T10:06:49;4.10;;;1.60;;
5245;SDS011;54412;51.206;6.888;2023-04-03T10:09:22;4.37;;;1.70;;
5245;SDS011;54412;51.206;6.888;2023-04-03T10:14:39;1.70;;;1.60;;
5245;SDS011;54412;51.206;6.888;2023-04-03T10:29:27;1.73;;;1.47;;
5245;SDS011;54412;51.206;6.888;2023-04-03T10:38:31;1.50;;;1.40;;
5245;SDS011;54412;51.206;6.888;2023-04-03T10:44:05;2.50;;;1.20;;
5245;SDS011;54412;51.206;6.888;2023-04-03T10:46:44;1.20;;;0.80;;
5245;SDS011;54412;51.206;6.888;2023-04-03T10:49:31;2.07;;;1.30;;
5245;SDS011;54412;51.206;6.888;2023-04-03T10:52:17;2.87;;;0.90;;
5245;SDS011;54412;51.206;6.888;2023-04-03T10:57:32;2.20;;;1.07;;
5245;SDS011;54412;51.206;6.888;2023-04-03T11:00:09;0.73;;;0.73;;
5245;SDS011;54412;51.206;6.888;2023-04-03T11:02:48;1.23;;;1.00;;
5245;SDS011;54412;51.206;6.888;2023-04-03T11:05:26;3.00;;;1.20;;
5245;SDS011;54412;51.206;6.888;2023-04-03T11:08:01;2.13;;;1.50;;
5245;SDS011;54412;51.206;6.888;2023-04-03T11:10:44;2.67;;;1.37;;
5245;SDS011;54412;51.206;6.888;2023-04-03T11:13:16;2.27;;;1.23;;
5245;SDS011;54412;51.206;6.888;2023-04-03T11:15:50;5.33;;;1.00;;
5245;SDS011;54412;51.206;6.888;2023-04-03T11:18:21;1.43;;;1.07;;
5245;SDS011;54412;51.206;6.888;2023-04-03T11:21:01;0.87;;;0.70;;
5245;SDS011;54412;51.206;6.888;2023-04-03T11:23:41;13.30;;;1.17;;
5245;SDS011;54412;51.206;6.888;2023-04-03T11:26:09;1.53;;;1.10;;
5245;SDS011;54412;51.206;6.888;2023-04-03T11:28:38;5.50;;;0.80;;
5245;SDS011;54412;51.206;6.888;2023-04-03T11:37:04;1.80;;;0.90;;
5245;SDS011;54412;51.206;6.888;2023-04-03T11:39:57;1.30;;;1.07;;
5245;SDS011;54412;51.206;6.888;2023-04-03T11:42:41;1.87;;;1.20;;
5245;SDS011;54412;51.206;6.888;2023-04-03T11:50:52;1.90;;;0.90;;
5245;SDS011;54412;51.206;6.888;2023-04-03T11:53:25;2.10;;;0.90;;
5245;SDS011;54412;51.206;6.888;2023-04-03T12:01:46;1.40;;;0.97;;
5245;SDS011;54412;51.206;6.888;2023-04-03T12:04:21;3.13;;;1.03;;
5245;SDS011;54412;51.206;6.888;2023-04-03T12:07:02;1.30;;;0.80;;
5245;SDS011;54412;51.206;6.888;2023-04-03T12:15:18;1.73;;;0.93;;
5245;SDS011;54412;51.206;6.888;2023-04-03T12:21:02;1.67;;;0.90;;
5245;SDS011;54412;51.206;6.888;2023-04-03T12:23:30;2.23;;;1.10;;
5245;SDS011;54412;51.206;6.888;2023-04-03T12:26:21;1.90;;;1.13;;
5245;SDS011;54412;51.206;6.888;2023-04-03T12:28:52;0.90;;;0.90;;
5245;SDS011;54412;51.206;6.888;2023-04-03T12:31:20;2.80;;;1.10;;
5245;SDS011;54412;51.206;6.888;2023-04-03T12:36:59;1.60;;;1.00;;
5245;SDS011;54412;51.206;6.888;2023-04-03T12:45:22;1.30;;;0.90;;
5245;SDS011;54412;51.206;6.888;2023-04-03T12:47:54;3.03;;;1.20;;
5245;SDS011;54412;51.206;6.888;2023-04-03T12:50:25;2.37;;;1.20;;
5245;SDS011;54412;51.206;6.888;2023-04-03T12:52:59;2.10;;;1.00;;
5245;SDS011;54412;51.206;6.888;2023-04-03T12:55:31;3.10;;;1.20;;
5245;SDS011;54412;51.206;6.888;2023-04-03T12:57:57;3.43;;;1.10;;
5245;SDS011;54412;51.206;6.888;2023-04-03T13:00:40;2.53;;;1.23;;
5245;SDS011;54412;51.206;6.888;2023-04-03T13:03:06;1.30;;;1.00;;
5245;SDS011;54412;51.206;6.888;2023-04-03T13:05:47;2.80;;;1.07;;
5245;SDS011;54412;51.206;6.888;2023-04-03T13:08:13;2.13;;;1.60;;
5245;SDS011;54412;51.206;6.888;2023-04-03T13:10:55;2.43;;;1.23;;
5245;SDS011;54412;51.206;6.888;2023-04-03T13:13:30;4.10;;;2.30;;
5245;SDS011;54412;51.206;6.888;2023-04-03T13:15:56;5.83;;;1.23;;
5245;SDS011;54412;51.206;6.888;2023-04-03T13:18:35;1.40;;;1.00;;
5245;SDS011;54412;51.206;6.888;2023-04-03T13:21:07;3.10;;;1.00;;
5245;SDS011;54412;51.206;6.888;2023-04-03T13:23:43;1.93;;;0.77;;
5245;SDS011;54412;51.206;6.888;2023-04-03T13:26:18;2.70;;;1.47;;
5245;SDS011;54412;51.206;6.888;2023-04-03T13:28:47;7.50;;;1.73;;
5245;SDS011;54412;51.206;6.888;2023-04-03T13:31:25;3.43;;;1.30;;
5245;SDS011;54412;51.206;6.888;2023-04-03T13:36:46;2.43;;;1.20;;
5245;SDS011;54412;51.206;6.888;2023-04-03T13:39:25;2.83;;;2.00;;
5245;SDS011;54412;51.206;6.888;2023-04-03T13:41:59;4.17;;;1.27;;
5245;SDS011;54412;51.206;6.888;2023-04-03T13:44:39;3.40;;;1.40;;
5245;SDS011;54412;51.206;6.888;2023-04-03T13:49:41;1.30;;;1.20;;
5245;SDS011;54412;51.206;6.888;2023-04-03T13:52:20;1.87;;;1.73;;
5245;SDS011;54412;51.206;6.888;2023-04-03T13:55:00;6.10;;;1.37;;
5245;SDS011;54412;51.206;6.888;2023-04-03T14:00:37;2.40;;;1.73;;
5245;SDS011;54412;51.206;6.888;2023-04-03T14:06:23;3.33;;;1.33;;
5245;SDS011;54412;51.206;6.888;2023-04-03T14:08:49;3.60;;;1.37;;
5245;SDS011;54412;51.206;6.888;2023-04-03T14:11:20;1.97;;;1.40;;
5245;SDS011;54412;51.206;6.888;2023-04-03T14:13:53;1.10;;;1.10;;
5245;SDS011;54412;51.206;6.888;2023-04-03T14:16:23;1.47;;;1.37;;
5245;SDS011;54412;51.206;6.888;2023-04-03T14:18:54;2.33;;;1.83;;
5245;SDS011;54412;51.206;6.888;2023-04-03T14:21:21;4.20;;;1.43;;
5245;SDS011;54412;51.206;6.888;2023-04-03T14:23:48;1.73;;;1.17;;
5245;SDS011;54412;51.206;6.888;2023-04-03T14:26:16;5.40;;;1.40;;
5245;SDS011;54412;51.206;6.888;2023-04-03T14:28:46;1.70;;;1.10;;
5245;SDS011;54412;51.206;6.888;2023-04-03T14:31:16;1.83;;;1.30;;
5245;SDS011;54412;51.206;6.888;2023-04-03T14:33:42;1.30;;;1.17;;
5245;SDS011;54412;51.206;6.888;2023-04-03T14:36:11;2.13;;;1.27;;
5245;SDS011;54412;51.206;6.888;2023-04-03T14:38:48;2.00;;;1.10;;
5245;SDS011;54412;51.206;6.888;2023-04-03T14:41:15;1.83;;;1.60;;
5245;SDS011;54412;51.206;6.888;2023-04-03T14:43:47;2.40;;;2.20;;
5245;SDS011;54412;51.206;6.888;2023-04-03T14:46:19;1.73;;;1.63;;
5245;SDS011;54412;51.206;6.888;2023-04-03T14:48:54;2.50;;;1.60;;
5245;SDS011;54412;51.206;6.888;2023-04-03T14:51:21;5.03;;;2.13;;
5245;SDS011;54412;51.206;6.888;2023-04-03T14:53:46;2.90;;;1.43;;
5245;SDS011;54412;51.206;6.888;2023-04-03T14:56:15;2.37;;;1.47;;
5245;SDS011;54412;51.206;6.888;2023-04-03T14:58:48;1.53;;;1.20;;
5245;SDS011;54412;51.206;6.888;2023-04-03T15:01:22;3.17;;;1.47;;
5245;SDS011;54412;51.206;6.888;2023-04-03T15:03:48;2.23;;;1.60;;
5245;SDS011;54412;51.206;6.888;2023-04-03T15:06:14;1.50;;;1.33;;
5245;SDS011;54412;51.206;6.888;2023-04-03T15:08:41;6.33;;;1.40;;
5245;SDS011;54412;51.206;6.888;2023-04-03T15:11:09;2.80;;;1.20;;
5245;SDS011;54412;51.206;6.888;2023-04-03T15:13:36;1.40;;;1.30;;
5245;SDS011;54412;51.206;6.888;2023-04-03T15:16:03;1.63;;;1.20;;
5245;SDS011;54412;51.206;6.888;2023-04-03T15:18:50;3.23;;;1.37;;
5245;SDS011;54412;51.206;6.888;2023-04-03T15:21:16;6.73;;;1.77;;
5245;SDS011;54412;51.206;6.888;2023-04-03T15:23:41;3.70;;;1.70;;
5245;SDS011;54412;51.206;6.888;2023-04-03T15:26:07;3.43;;;1.50;;
5245;SDS011;54412;51.206;6.888;2023-04-03T15:28:39;1.57;;;1.47;;
5245;SDS011;54412;51.206;6.888;2023-04-03T15:31:07;3.53;;;1.53;;
5245;SDS011;54412;51.206;6.888;2023-04-03T15:33:34;1.40;;;1.30;;
5245;SDS011;54412;51.206;6.888;2023-04-03T15:36:01;1.27;;;1.07;;
5245;SDS011;54412;51.206;6.888;2023-04-03T15:38:28;3.10;;;1.57;;
5245;SDS011;54412;51.206;6.888;2023-04-03T15:40:54;2.10;;;1.20;;
5245;SDS011;54412;51.206;6.888;2023-04-03T15:43:20;2.27;;;1.30;;
5245;SDS011;54412;51.206;6.888;2023-04-03T15:45:46;2.90;;;2.23;;
5245;SDS011;54412;51.206;6.888;2023-04-03T15:48:13;1.53;;;1.43;;
5245;SDS011;54412;51.206;6.888;2023-04-03T15:50:39;2.83;;;1.97;;
5245;SDS011;54412;51.206;6.888;2023-04-03T15:53:07;2.67;;;1.27;;
5245;SDS011;54412;51.206;6.888;2023-04-03T15:55:35;2.23;;;1.43;;
5245;SDS011;54412;51.206;6.888;2023-04-03T15:58:03;1.80;;;1.60;;
5245;SDS011;54412;51.206;6.888;2023-04-03T16:00:30;2.50;;;1.17;;
5245;SDS011;54412;51.206;6.888;2023-04-03T16:03:00;6.27;;;1.67;;
5245;SDS011;54412;51.206;6.888;2023-04-03T16:05:51;4.20;;;1.27;;
5245;SDS011;54412;51.206;6.888;2023-04-03T16:08:17;3.97;;;1.87;;
5245;SDS011;54412;51.206;6.888;2023-04-03T16:10:43;3.50;;;1.20;;
5245;SDS011;54412;51.206;6.888;2023-04-03T16:13:13;3.77;;;1.57;;
5245;SDS011;54412;51.206;6.888;2023-04-03T16:15:39;3.73;;;1.43;;
5245;SDS011;54412;51.206;6.888;2023-04-03T16:18:05;3.13;;;1.37;;
5245;SDS011;54412;51.206;6.888;2023-04-03T16:20:33;2.30;;;1.50;;
5245;SDS011;54412;51.206;6.888;2023-04-03T16:23:00;1.53;;;1.33;;
5245;SDS011;54412;51.206;6.888;2023-04-03T16:25:26;3.57;;;1.60;;
5245;SDS011;54412;51.206;6.888;2023-04-03T16:27:52;1.40;;;1.30;;
5245;SDS011;54412;51.206;6.888;2023-04-03T16:30:18;3.17;;;1.80;;
5245;SDS011;54412;51.206;6.888;2023-04-03T16:32:44;3.07;;;1.53;;
5245;SDS011;54412;51.206;6.888;2023-04-03T16:35:10;1.10;;;1.10;;
5245;SDS011;54412;51.206;6.888;2023-04-03T16:37:37;2.87;;;1.23;;
5245;SDS011;54412;51.206;6.888;2023-04-03T16:40:04;1.73;;;1.50;;
5245;SDS011;54412;51.206;6.888;2023-04-03T16:42:32;3.90;;;1.50;;
5245;SDS011;54412;51.206;6.888;2023-04-03T16:44:58;5.37;;;1.40;;
5245;SDS011;54412;51.206;6.888;2023-04-03T16:47:25;3.80;;;1.47;;
5245;SDS011;54412;51.206;6.888;2023-04-03T16:49:51;1.67;;;1.20;;
5245;SDS011;54412;51.206;6.888;2023-04-03T16:52:17;2.33;;;1.30;;